createdAt,value
2023-03-22T00:00:06.747Z,7.21
2023-03-22T00:02:33.735Z,7.28
2023-03-22T00:05:00.714Z,7.27
2023-03-22T00:07:28.109Z,7.23
2023-03-22T00:09:55.215Z,7.32
2023-03-22T00:12:22.272Z,7.48
2023-03-22T00:14:49.607Z,7.31
2023-03-22T00:17:16.583Z,7.37
2023-03-22T00:19:45.069Z,7.37
2023-03-22T00:22:12.008Z,7.31
2023-03-22T00:24:39.208Z,7.37
2023-03-22T00:27:06.391Z,7.38
2023-03-22T00:29:33.346Z,7.26
2023-03-22T00:32:00.438Z,7.32
2023-03-22T00:34:31.718Z,7.34
2023-03-22T00:36:58.996Z,7.34
2023-03-22T00:39:27.127Z,7.47
2023-03-22T00:41:54.126Z,7.34
2023-03-22T00:44:21.465Z,7.33
2023-03-22T00:46:48.405Z,7.44
2023-03-22T00:49:15.462Z,7.34
2023-03-22T00:51:42.514Z,7.26
2023-03-22T00:54:09.442Z,7.51
2023-03-22T00:56:37.735Z,7.37
2023-03-22T00:59:13.703Z,7.40
2023-03-22T01:01:41.867Z,7.46
2023-03-22T01:04:09.231Z,7.24
2023-03-22T01:06:36.275Z,7.27
2023-03-22T01:09:03.812Z,7.46
2023-03-22T01:11:30.913Z,7.28
2023-03-22T01:13:57.919Z,7.21
2023-03-22T01:16:24.827Z,7.40
2023-03-22T01:18:52.028Z,7.23
2023-03-22T01:21:19.931Z,7.19
2023-03-22T01:23:47.744Z,7.29
2023-03-22T01:26:18.135Z,7.28
2023-03-22T01:28:45.078Z,7.26
2023-03-22T01:31:12.294Z,7.35
2023-03-22T01:33:39.136Z,7.29
2023-03-22T01:36:06.977Z,7.42
2023-03-22T01:38:35.742Z,7.41
2023-03-22T01:41:02.970Z,7.34
2023-03-22T01:43:33.542Z,7.40
2023-03-22T01:46:00.678Z,7.41
2023-03-22T01:48:38.724Z,7.34
2023-03-22T01:51:11.500Z,7.31
2023-03-22T01:53:58.296Z,7.32
2023-03-22T01:56:28.536Z,7.25
2023-03-22T01:58:56.609Z,7.35
2023-03-22T02:01:33.118Z,7.28
2023-03-22T02:04:13.208Z,7.31
2023-03-22T02:06:40.333Z,7.52
2023-03-22T02:09:22.142Z,7.36
2023-03-22T02:12:04.778Z,7.42
2023-03-22T02:14:44.943Z,7.47
2023-03-22T02:17:46.384Z,7.31
2023-03-22T02:20:19.478Z,7.32
2023-03-22T02:22:59.127Z,7.31
2023-03-22T02:25:40.613Z,7.25
2023-03-22T02:28:43.038Z,7.38
2023-03-22T02:31:38.076Z,7.33
2023-03-22T02:34:27.802Z,7.47
2023-03-22T02:37:32.910Z,7.30
2023-03-22T02:40:21.107Z,7.19
2023-03-22T02:42:57.099Z,7.40
2023-03-22T02:45:33.932Z,7.17
2023-03-22T02:48:10.485Z,7.18
2023-03-22T02:50:57.273Z,7.33
2023-03-22T02:53:43.558Z,7.17
2023-03-22T02:56:19.789Z,7.24
2023-03-22T02:59:01.130Z,7.20
2023-03-22T03:01:32.134Z,7.09
2023-03-22T03:04:02.796Z,7.17
2023-03-22T03:06:35.972Z,7.07
2023-03-22T03:09:05.477Z,7.03
2023-03-22T03:11:32.847Z,7.04
2023-03-22T03:14:00.959Z,7.02
2023-03-22T03:16:30.900Z,7.10
2023-03-22T03:19:12.916Z,7.12
2023-03-22T03:21:51.974Z,7.00
2023-03-22T03:24:38.310Z,6.99
2023-03-22T03:27:17.799Z,7.00
2023-03-22T03:30:10.228Z,6.92
2023-03-22T03:32:53.855Z,6.85
2023-03-22T03:35:25.615Z,6.87
2023-03-22T03:38:07.990Z,6.87
2023-03-22T03:40:41.090Z,7.00
2023-03-22T03:43:10.045Z,6.89
2023-03-22T03:45:38.024Z,6.78
2023-03-22T03:48:21.973Z,7.00
2023-03-22T03:50:52.496Z,6.88
2023-03-22T03:53:20.223Z,6.85
2023-03-22T03:55:47.374Z,6.97
2023-03-22T03:58:16.912Z,6.85
2023-03-22T04:00:46.512Z,6.86
2023-03-22T04:03:16.962Z,6.97
2023-03-22T04:06:02.531Z,6.89
2023-03-22T04:08:31.725Z,6.92
2023-03-22T04:10:58.940Z,7.03
2023-03-22T04:13:25.939Z,6.94
2023-03-22T04:15:58.315Z,7.04
2023-03-22T04:18:25.524Z,7.12
2023-03-22T04:20:53.718Z,7.03
2023-03-22T04:23:22.732Z,7.19
2023-03-22T04:25:50.817Z,7.14
2023-03-22T04:28:28.539Z,7.06
2023-03-22T04:30:57.892Z,7.12
2023-03-22T04:33:56.683Z,7.12
2023-03-22T04:36:39.670Z,7.00
2023-03-22T04:39:22.733Z,7.05
2023-03-22T04:41:58.978Z,6.88
2023-03-22T04:44:26.948Z,6.90
2023-03-22T04:46:53.883Z,7.01
2023-03-22T04:49:20.758Z,6.84
2023-03-22T04:51:47.896Z,6.95
2023-03-22T04:54:22.362Z,7.18
2023-03-22T04:56:49.507Z,6.97
2023-03-22T04:59:20.367Z,7.04
2023-03-22T05:01:51.601Z,7.20
2023-03-22T05:04:22.851Z,6.90
2023-03-22T05:06:56.499Z,7.03
2023-03-22T05:09:30.863Z,7.10
2023-03-22T05:11:58.346Z,6.92
2023-03-22T05:14:35.924Z,7.00
2023-03-22T05:17:03.941Z,7.09
2023-03-22T05:19:34.737Z,6.86
2023-03-22T05:22:02.226Z,6.96
2023-03-22T05:24:48.277Z,6.96
2023-03-22T05:27:31.662Z,6.87
2023-03-22T05:30:21.619Z,7.23
2023-03-22T05:33:04.618Z,7.13
2023-03-22T05:35:39.740Z,7.09
2023-03-22T05:38:09.259Z,7.22
2023-03-22T05:40:39.511Z,7.31
2023-03-22T05:43:06.514Z,7.39
2023-03-22T05:45:36.898Z,7.34
2023-03-22T05:48:33.248Z,7.18
2023-03-22T05:51:00.854Z,7.27
2023-03-22T05:53:31.383Z,7.13
2023-03-22T05:56:05.618Z,7.06
2023-03-22T05:58:33.989Z,7.31
2023-03-22T06:01:12.042Z,6.99
2023-03-22T06:03:49.112Z,7.05
2023-03-22T06:06:24.771Z,6.97
2023-03-22T06:09:16.053Z,6.77
2023-03-22T06:11:45.763Z,7.04
2023-03-22T06:14:16.083Z,6.96
2023-03-22T06:17:18.834Z,6.89
2023-03-22T06:19:47.829Z,7.18
2023-03-22T06:22:16.080Z,6.93
2023-03-22T06:24:44.157Z,6.99
2023-03-22T06:27:17.921Z,7.19
2023-03-22T06:29:50.824Z,7.13
2023-03-22T06:32:24.745Z,7.28
2023-03-22T06:34:51.723Z,7.51
2023-03-22T06:37:20.469Z,7.14
2023-03-22T06:39:48.037Z,7.21
2023-03-22T06:42:15.747Z,7.27
2023-03-22T06:44:46.204Z,7.25
2023-03-22T06:47:27.257Z,7.40
2023-03-22T06:50:15.948Z,7.45
2023-03-22T06:53:00.833Z,7.53
2023-03-22T06:55:27.998Z,7.83
2023-03-22T06:57:55.226Z,7.87
2023-03-22T07:00:22.589Z,7.85
2023-03-22T07:02:51.522Z,8.08
2023-03-22T07:05:28.279Z,8.01
2023-03-22T07:07:55.261Z,8.10
2023-03-22T07:10:22.661Z,8.28
2023-03-22T07:12:50.437Z,8.17
2023-03-22T07:15:17.750Z,8.17
2023-03-22T07:18:04.649Z,8.35
2023-03-22T07:20:41.839Z,8.17
2023-03-22T07:23:10.895Z,8.22
2023-03-22T07:40:02.340Z,8.36
2023-03-22T07:42:31.833Z,8.40
2023-03-22T07:45:19.656Z,8.04
2023-03-22T07:47:47.090Z,8.39
2023-03-22T07:50:32.717Z,8.31
2023-03-22T07:53:03.929Z,8.39
2023-03-22T07:55:31.718Z,8.76
2023-03-22T07:57:58.964Z,8.79
2023-03-22T08:00:25.944Z,8.64
2023-03-22T08:03:07.060Z,8.86
2023-03-22T08:05:52.259Z,8.63
2023-03-22T08:08:20.672Z,8.82
2023-03-22T08:10:51.700Z,9.11
2023-03-22T08:13:18.982Z,8.78
2023-03-22T08:15:46.051Z,8.50
2023-03-22T08:18:13.239Z,8.56
2023-03-22T08:20:41.441Z,8.42
2023-03-22T08:23:16.335Z,8.40
2023-03-22T08:25:43.649Z,8.47
2023-03-22T08:28:13.384Z,8.34
2023-03-22T08:30:41.036Z,8.29
2023-03-22T08:33:08.678Z,8.57
2023-03-22T08:35:36.737Z,8.64
2023-03-22T08:38:03.698Z,8.62
2023-03-22T08:40:39.708Z,8.42
2023-03-22T08:43:07.281Z,8.29
2023-03-22T08:45:36.330Z,8.07
2023-03-22T08:48:11.768Z,8.25
2023-03-22T08:50:58.563Z,8.22
2023-03-22T08:53:35.658Z,7.95
2023-03-22T08:56:22.789Z,8.07
2023-03-22T08:59:05.319Z,7.64
2023-03-22T09:01:40.620Z,7.67
2023-03-22T09:04:10.731Z,7.80
2023-03-22T09:06:38.106Z,7.56
2023-03-22T09:09:04.985Z,7.67
2023-03-22T09:11:32.896Z,7.88
2023-03-22T09:13:59.834Z,7.69
2023-03-22T09:16:26.781Z,7.58
2023-03-22T09:18:54.187Z,7.91
2023-03-22T09:21:22.294Z,7.68
2023-03-22T09:23:57.456Z,7.68
2023-03-22T09:26:37.081Z,7.79
2023-03-22T09:29:05.936Z,7.32
2023-03-22T09:31:33.805Z,7.32
2023-03-22T09:34:11.591Z,7.42
2023-03-22T09:36:39.383Z,7.17
2023-03-22T09:39:07.601Z,7.14
2023-03-22T09:41:41.860Z,7.40
2023-03-22T09:44:14.517Z,7.00
2023-03-22T09:46:52.380Z,7.00
2023-03-22T09:49:23.944Z,7.05
2023-03-22T09:51:52.870Z,6.76
2023-03-22T09:54:27.602Z,6.85
2023-03-22T09:57:06.542Z,6.91
2023-03-22T10:00:02.322Z,6.74
2023-03-22T10:02:57.002Z,6.91
2023-03-22T10:05:39.379Z,6.80
2023-03-22T10:08:09.066Z,6.86
2023-03-22T10:10:37.629Z,7.17
2023-03-22T10:13:16.543Z,6.90
2023-03-22T10:15:53.254Z,6.96
2023-03-22T10:18:33.254Z,7.22
2023-03-22T10:21:06.963Z,6.84
2023-03-22T10:23:44.066Z,6.97
2023-03-22T10:26:21.142Z,7.09
2023-03-22T10:29:02.725Z,6.96
2023-03-22T10:31:31.764Z,7.18
2023-03-22T10:34:05.616Z,7.09
2023-03-22T10:36:35.892Z,6.79
2023-03-22T10:39:17.075Z,7.00
2023-03-22T10:41:45.047Z,6.79
2023-03-22T10:44:18.147Z,6.87
2023-03-22T10:46:46.440Z,6.87
2023-03-22T10:49:22.170Z,6.64
2023-03-22T10:51:51.819Z,6.95
2023-03-22T10:54:21.659Z,6.83
2023-03-22T10:56:48.551Z,6.58
2023-03-22T10:59:44.096Z,6.88
2023-03-22T11:02:34.364Z,6.83
2023-03-22T11:05:04.598Z,6.60
2023-03-22T11:07:45.018Z,7.14
2023-03-22T11:10:21.852Z,7.06
2023-03-22T11:12:55.319Z,6.90
2023-03-22T11:15:32.609Z,7.37
2023-03-22T11:18:07.628Z,7.17
2023-03-22T11:20:35.390Z,7.16
2023-03-22T11:23:06.238Z,7.39
2023-03-22T11:25:37.882Z,7.25
2023-03-22T11:28:04.702Z,7.20
2023-03-22T11:30:34.048Z,7.52
2023-03-22T11:33:07.203Z,7.11
2023-03-22T11:35:37.853Z,7.01
2023-03-22T11:38:05.782Z,7.32
2023-03-22T11:40:35.706Z,7.07
2023-03-22T11:43:19.510Z,7.05
2023-03-22T11:45:49.995Z,7.11
2023-03-22T11:48:24.620Z,6.90
2023-03-22T11:50:55.409Z,7.30
2023-03-22T11:53:25.438Z,7.18
2023-03-22T11:55:55.841Z,7.02
2023-03-22T11:58:30.193Z,7.24
2023-03-22T12:01:02.276Z,7.20
2023-03-22T12:03:39.488Z,7.01
2023-03-22T12:06:24.603Z,7.26
2023-03-22T12:08:57.784Z,7.15
2023-03-22T12:11:30.682Z,7.19
2023-03-22T12:14:07.300Z,7.46
2023-03-22T12:17:05.617Z,7.16
2023-03-22T12:19:57.872Z,7.28
2023-03-22T12:22:32.528Z,7.38
2023-03-22T12:25:00.137Z,7.17
2023-03-22T12:27:41.802Z,7.49
2023-03-22T12:30:17.946Z,7.37
2023-03-22T12:32:53.720Z,7.40
2023-03-22T12:35:25.870Z,7.70
2023-03-22T12:37:56.977Z,7.69
2023-03-22T12:40:29.247Z,7.83
2023-03-22T12:43:22.275Z,8.06
2023-03-22T12:45:55.206Z,7.66
2023-03-22T12:48:46.646Z,7.84
2023-03-22T12:51:15.023Z,7.97
2023-03-22T12:54:02.565Z,7.83
2023-03-22T12:56:32.502Z,8.00
2023-03-22T12:59:04.659Z,7.99
2023-03-22T13:01:45.720Z,7.70
2023-03-22T13:04:37.892Z,8.08
2023-03-22T13:07:13.878Z,7.84
2023-03-22T13:09:51.188Z,7.99
2023-03-22T13:12:18.137Z,8.27
2023-03-22T13:14:56.242Z,8.12
2023-03-22T13:17:23.242Z,8.31
2023-03-22T13:20:02.005Z,8.51
2023-03-22T13:22:38.125Z,8.20
2023-03-22T13:25:17.699Z,8.36
2023-03-22T13:27:59.209Z,8.22
2023-03-22T13:30:50.905Z,8.15
2023-03-22T13:33:20.234Z,8.15
2023-03-22T13:35:52.534Z,8.07
2023-03-22T13:38:19.661Z,8.20
2023-03-22T13:41:06.749Z,8.36
2023-03-22T13:43:39.833Z,8.06
2023-03-22T13:46:10.311Z,8.14
2023-03-22T13:48:54.471Z,8.32
2023-03-22T13:51:31.231Z,8.03
2023-03-22T13:54:07.299Z,8.05
2023-03-22T13:56:54.369Z,7.95
2023-03-22T13:59:27.633Z,7.84
2023-03-22T14:02:00.283Z,7.84
2023-03-22T14:04:42.622Z,7.69
2023-03-22T14:07:13.549Z,7.59
2023-03-22T14:09:49.786Z,7.68
2023-03-22T14:12:21.405Z,7.50
2023-03-22T14:14:57.239Z,7.33
2023-03-22T14:17:44.528Z,7.54
2023-03-22T14:20:19.359Z,7.28
